Pagrindinis puslapis
METAR-TAF:

METAR-TAF

Oro uostai :

Port Alsworth, Aliaska, Jungtinės Amerikos Valstijos

platuma: 60-12N, ilguma: 154-19W, Aukštis: 85 m

Dabartinis oras

Ataskaita buvo paskelbta 4 valandos ir 21 minutes, ne 00:52 UTC
Vėjas 7 kt iš Vakarų/Pietvakarių
Temperatūra 9°C
Drėgmė 100%
Slėgis 990 hPa
Matomumas: 16.1 km
Su prošvaistėmis ne aukštis 1000 ft
Apsiniaukę ne aukštis 3500 ft
lietus

METAR: PALJ 210052Z 25007KT 10SM -RA BKN010 OVC035 09/09 A2922 RMK EST PASS CLSD NOSPECI

Laikas: 21:13 (05:13 UTC)


TAF: trūkstamas

Orai ataskaitas ir orų prognozės (METAR, TAF).

turimą stotys yra geltonos ir raudonos taškus žemėlapyje.

Perkelti pele per norėdami pamatyti stoties vardą.

Tada spustelėkite, norėdami matyti oro stebėjimo ir prognozės.

Norėdami pakeisti žemėlapį: spustelėkite ant žalios mygtukų su juodo kryžiaus žemyn,; žalią mygtuką su brūkšneliu, jei norite nutolinti; arba žalių rodyklių gretimoms žemėlapius.


METAR-TAF: